sensor_id;sensor_type;location;lat;lon;timestamp;temperature;humidity
17845;DHT22;9047;53.486;10.218;2023-07-20T00:00:08;13.50;99.90
17845;DHT22;9047;53.486;10.218;2023-07-20T00:02:35;13.40;99.90
17845;DHT22;9047;53.486;10.218;2023-07-20T00:05:02;13.40;99.90
17845;DHT22;9047;53.486;10.218;2023-07-20T00:07:30;13.40;99.90
17845;DHT22;9047;53.486;10.218;2023-07-20T00:09:57;13.30;99.90
17845;DHT22;9047;53.486;10.218;2023-07-20T00:12:24;13.40;99.90
17845;DHT22;9047;53.486;10.218;2023-07-20T00:14:51;13.30;99.90
17845;DHT22;9047;53.486;10.218;2023-07-20T00:17:19;13.20;99.90
17845;DHT22;9047;53.486;10.218;2023-07-20T00:19:46;13.30;99.90
17845;DHT22;9047;53.486;10.218;2023-07-20T00:22:13;13.30;99.90
17845;DHT22;9047;53.486;10.218;2023-07-20T00:24:41;13.30;99.90
17845;DHT22;9047;53.486;10.218;2023-07-20T00:27:08;13.30;99.90
17845;DHT22;9047;53.486;10.218;2023-07-20T00:29:35;13.30;99.90
17845;DHT22;9047;53.486;10.218;2023-07-20T00:32:02;13.30;99.90
17845;DHT22;9047;53.486;10.218;2023-07-20T00:34:31;13.40;99.90
17845;DHT22;9047;53.486;10.218;2023-07-20T00:36:57;13.40;99.90
17845;DHT22;9047;53.486;10.218;2023-07-20T00:39:24;13.50;99.90
17845;DHT22;9047;53.486;10.218;2023-07-20T00:41:53;13.50;99.90
17845;DHT22;9047;53.486;10.218;2023-07-20T00:44:19;13.50;99.90
17845;DHT22;9047;53.486;10.218;2023-07-20T00:46:46;13.50;99.90
17845;DHT22;9047;53.486;10.218;2023-07-20T00:49:13;13.60;99.90
17845;DHT22;9047;53.486;10.218;2023-07-20T00:51:40;13.60;99.90
17845;DHT22;9047;53.486;10.218;2023-07-20T00:54:08;13.50;99.90
17845;DHT22;9047;53.486;10.218;2023-07-20T00:56:35;13.60;99.90
17845;DHT22;9047;53.486;10.218;2023-07-20T00:59:05;13.60;99.90
17845;DHT22;9047;53.486;10.218;2023-07-20T01:01:32;13.60;99.90
17845;DHT22;9047;53.486;10.218;2023-07-20T01:03:59;13.70;99.90
17845;DHT22;9047;53.486;10.218;2023-07-20T01:06:31;13.70;99.90
17845;DHT22;9047;53.486;10.218;2023-07-20T01:09:11;13.70;99.90
17845;DHT22;9047;53.486;10.218;2023-07-20T01:11:48;13.70;99.90
17845;DHT22;9047;53.486;10.218;2023-07-20T01:14:18;13.70;99.90
17845;DHT22;9047;53.486;10.218;2023-07-20T01:16:46;13.70;99.90
17845;DHT22;9047;53.486;10.218;2023-07-20T01:19:15;13.80;99.90
17845;DHT22;9047;53.486;10.218;2023-07-20T01:21:50;13.80;99.90
17845;DHT22;9047;53.486;10.218;2023-07-20T01:28:04;13.80;99.90
17845;DHT22;9047;53.486;10.218;2023-07-20T01:30:55;13.90;99.90
17845;DHT22;9047;53.486;10.218;2023-07-20T01:33:28;13.90;99.90
17845;DHT22;9047;53.486;10.218;2023-07-20T01:35:58;13.90;99.90
17845;DHT22;9047;53.486;10.218;2023-07-20T01:38:25;13.90;99.90
17845;DHT22;9047;53.486;10.218;2023-07-20T01:40:55;14.00;99.90
17845;DHT22;9047;53.486;10.218;2023-07-20T01:43:22;14.00;99.90
17845;DHT22;9047;53.486;10.218;2023-07-20T01:45:49;14.00;99.90
17845;DHT22;9047;53.486;10.218;2023-07-20T01:48:16;14.00;99.90
17845;DHT22;9047;53.486;10.218;2023-07-20T01:50:44;14.00;99.90
17845;DHT22;9047;53.486;10.218;2023-07-20T01:53:12;14.00;99.90
17845;DHT22;9047;53.486;10.218;2023-07-20T01:55:39;14.00;99.90
17845;DHT22;9047;53.486;10.218;2023-07-20T01:58:06;14.00;99.90
17845;DHT22;9047;53.486;10.218;2023-07-20T02:00:33;14.00;99.90
17845;DHT22;9047;53.486;10.218;2023-07-20T02:03:00;14.00;99.90
17845;DHT22;9047;53.486;10.218;2023-07-20T02:05:27;14.00;99.90
17845;DHT22;9047;53.486;10.218;2023-07-20T02:07:55;14.00;99.90
17845;DHT22;9047;53.486;10.218;2023-07-20T02:10:22;14.00;99.90
17845;DHT22;9047;53.486;10.218;2023-07-20T02:12:49;14.00;99.90
17845;DHT22;9047;53.486;10.218;2023-07-20T02:15:16;14.00;99.90
17845;DHT22;9047;53.486;10.218;2023-07-20T02:17:44;13.90;99.90
17845;DHT22;9047;53.486;10.218;2023-07-20T02:20:11;13.90;99.90
17845;DHT22;9047;53.486;10.218;2023-07-20T02:22:38;13.90;99.90
17845;DHT22;9047;53.486;10.218;2023-07-20T02:25:08;13.90;99.90
17845;DHT22;9047;53.486;10.218;2023-07-20T02:27:35;13.80;99.90
17845;DHT22;9047;53.486;10.218;2023-07-20T02:30:02;13.80;99.90
17845;DHT22;9047;53.486;10.218;2023-07-20T02:32:30;13.80;99.90
17845;DHT22;9047;53.486;10.218;2023-07-20T02:34:58;13.80;99.90
17845;DHT22;9047;53.486;10.218;2023-07-20T02:37:25;13.80;99.90
17845;DHT22;9047;53.486;10.218;2023-07-20T02:39:52;13.70;99.90
17845;DHT22;9047;53.486;10.218;2023-07-20T02:42:20;13.80;99.90
17845;DHT22;9047;53.486;10.218;2023-07-20T02:44:48;13.80;99.90
17845;DHT22;9047;53.486;10.218;2023-07-20T02:47:18;13.80;99.90
17845;DHT22;9047;53.486;10.218;2023-07-20T02:49:45;13.80;99.90
17845;DHT22;9047;53.486;10.218;2023-07-20T02:52:12;13.70;99.90
17845;DHT22;9047;53.486;10.218;2023-07-20T02:54:39;13.70;99.90
17845;DHT22;9047;53.486;10.218;2023-07-20T02:57:06;13.70;99.90
17845;DHT22;9047;53.486;10.218;2023-07-20T02:59:34;13.70;99.90
17845;DHT22;9047;53.486;10.218;2023-07-20T03:02:01;13.70;99.90
17845;DHT22;9047;53.486;10.218;2023-07-20T03:04:28;13.70;99.90
17845;DHT22;9047;53.486;10.218;2023-07-20T03:06:55;13.70;99.90
17845;DHT22;9047;53.486;10.218;2023-07-20T03:09:22;13.60;99.90
17845;DHT22;9047;53.486;10.218;2023-07-20T03:11:50;13.70;99.90
17845;DHT22;9047;53.486;10.218;2023-07-20T03:14:16;13.70;99.90
17845;DHT22;9047;53.486;10.218;2023-07-20T03:16:45;13.60;99.90
17845;DHT22;9047;53.486;10.218;2023-07-20T03:19:12;13.70;99.90
17845;DHT22;9047;53.486;10.218;2023-07-20T03:21:38;13.70;99.90
17845;DHT22;9047;53.486;10.218;2023-07-20T03:24:06;13.70;99.90
17845;DHT22;9047;53.486;10.218;2023-07-20T03:26:34;13.60;99.90
17845;DHT22;9047;53.486;10.218;2023-07-20T03:29:01;13.60;99.90
17845;DHT22;9047;53.486;10.218;2023-07-20T03:31:28;13.60;99.90
17845;DHT22;9047;53.486;10.218;2023-07-20T03:33:59;13.60;99.90
17845;DHT22;9047;53.486;10.218;2023-07-20T03:36:26;13.60;99.90
17845;DHT22;9047;53.486;10.218;2023-07-20T03:38:53;13.60;99.90
17845;DHT22;9047;53.486;10.218;2023-07-20T03:41:20;13.60;99.90
17845;DHT22;9047;53.486;10.218;2023-07-20T03:43:47;13.60;99.90
17845;DHT22;9047;53.486;10.218;2023-07-20T03:46:14;13.60;99.90
17845;DHT22;9047;53.486;10.218;2023-07-20T03:48:41;13.60;99.90
17845;DHT22;9047;53.486;10.218;2023-07-20T03:51:09;13.60;99.90
17845;DHT22;9047;53.486;10.218;2023-07-20T03:53:36;13.60;99.90
17845;DHT22;9047;53.486;10.218;2023-07-20T03:56:05;13.70;99.90
17845;DHT22;9047;53.486;10.218;2023-07-20T03:58:32;13.70;99.90
17845;DHT22;9047;53.486;10.218;2023-07-20T04:00:59;13.70;99.90
17845;DHT22;9047;53.486;10.218;2023-07-20T04:03:26;13.60;99.90
17845;DHT22;9047;53.486;10.218;2023-07-20T04:05:54;13.60;99.90
17845;DHT22;9047;53.486;10.218;2023-07-20T04:08:23;13.70;99.90
17845;DHT22;9047;53.486;10.218;2023-07-20T04:10:50;13.60;99.90
17845;DHT22;9047;53.486;10.218;2023-07-20T04:13:17;13.70;99.90
17845;DHT22;9047;53.486;10.218;2023-07-20T04:15:44;13.70;99.90
17845;DHT22;9047;53.486;10.218;2023-07-20T04:18:11;13.60;99.90
17845;DHT22;9047;53.486;10.218;2023-07-20T04:20:38;13.70;99.90
17845;DHT22;9047;53.486;10.218;2023-07-20T04:23:05;13.60;99.90
17845;DHT22;9047;53.486;10.218;2023-07-20T04:25:33;13.70;99.90
17845;DHT22;9047;53.486;10.218;2023-07-20T04:28:05;13.90;99.90
17845;DHT22;9047;53.486;10.218;2023-07-20T04:30:49;13.80;99.90
17845;DHT22;9047;53.486;10.218;2023-07-20T04:33:16;13.90;99.90
17845;DHT22;9047;53.486;10.218;2023-07-20T04:35:48;13.90;99.90
17845;DHT22;9047;53.486;10.218;2023-07-20T04:38:16;13.90;99.90
17845;DHT22;9047;53.486;10.218;2023-07-20T04:40:45;14.00;99.90
17845;DHT22;9047;53.486;10.218;2023-07-20T04:43:12;14.00;99.90
17845;DHT22;9047;53.486;10.218;2023-07-20T04:45:39;14.00;99.90
17845;DHT22;9047;53.486;10.218;2023-07-20T04:48:09;14.00;99.90
17845;DHT22;9047;53.486;10.218;2023-07-20T04:50:36;14.10;99.90
17845;DHT22;9047;53.486;10.218;2023-07-20T04:53:03;14.20;99.90
17845;DHT22;9047;53.486;10.218;2023-07-20T04:55:31;14.30;99.90
17845;DHT22;9047;53.486;10.218;2023-07-20T04:58:01;14.20;99.90
17845;DHT22;9047;53.486;10.218;2023-07-20T05:00:28;14.30;99.90
17845;DHT22;9047;53.486;10.218;2023-07-20T05:02:55;14.10;99.90
17845;DHT22;9047;53.486;10.218;2023-07-20T05:05:22;14.10;99.90
17845;DHT22;9047;53.486;10.218;2023-07-20T05:07:49;14.20;99.90
17845;DHT22;9047;53.486;10.218;2023-07-20T05:10:17;14.10;99.90
17845;DHT22;9047;53.486;10.218;2023-07-20T05:12:44;14.10;99.90
17845;DHT22;9047;53.486;10.218;2023-07-20T05:15:12;14.20;99.90
17845;DHT22;9047;53.486;10.218;2023-07-20T05:17:39;14.20;99.90
17845;DHT22;9047;53.486;10.218;2023-07-20T05:20:07;14.20;99.90
17845;DHT22;9047;53.486;10.218;2023-07-20T05:22:35;14.30;99.90
17845;DHT22;9047;53.486;10.218;2023-07-20T05:25:06;14.30;99.90
17845;DHT22;9047;53.486;10.218;2023-07-20T05:27:34;14.30;99.90
17845;DHT22;9047;53.486;10.218;2023-07-20T05:30:01;14.30;99.90
17845;DHT22;9047;53.486;10.218;2023-07-20T05:32:30;14.30;99.90
17845;DHT22;9047;53.486;10.218;2023-07-20T05:34:57;14.30;99.90
17845;DHT22;9047;53.486;10.218;2023-07-20T05:37:24;14.30;99.90
17845;DHT22;9047;53.486;10.218;2023-07-20T05:39:51;14.30;99.90
17845;DHT22;9047;53.486;10.218;2023-07-20T05:42:18;14.40;99.90
17845;DHT22;9047;53.486;10.218;2023-07-20T05:44:44;14.30;99.90
17845;DHT22;9047;53.486;10.218;2023-07-20T05:47:12;14.30;99.90
17845;DHT22;9047;53.486;10.218;2023-07-20T05:49:41;14.40;99.90
17845;DHT22;9047;53.486;10.218;2023-07-20T05:52:07;14.50;99.90
17845;DHT22;9047;53.486;10.218;2023-07-20T05:54:34;14.60;99.90
17845;DHT22;9047;53.486;10.218;2023-07-20T05:57:01;14.60;99.90
17845;DHT22;9047;53.486;10.218;2023-07-20T05:59:28;14.60;99.90
17845;DHT22;9047;53.486;10.218;2023-07-20T06:01:55;14.70;99.90
17845;DHT22;9047;53.486;10.218;2023-07-20T06:04:22;14.70;99.90
17845;DHT22;9047;53.486;10.218;2023-07-20T06:06:51;14.80;99.90
17845;DHT22;9047;53.486;10.218;2023-07-20T06:09:18;14.80;99.90
17845;DHT22;9047;53.486;10.218;2023-07-20T06:11:45;14.90;99.90
17845;DHT22;9047;53.486;10.218;2023-07-20T06:14:12;15.00;99.90
17845;DHT22;9047;53.486;10.218;2023-07-20T06:16:39;15.10;99.90
17845;DHT22;9047;53.486;10.218;2023-07-20T06:19:06;15.20;99.90
17845;DHT22;9047;53.486;10.218;2023-07-20T06:21:32;15.40;99.90
17845;DHT22;9047;53.486;10.218;2023-07-20T06:24:01;15.50;99.90
17845;DHT22;9047;53.486;10.218;2023-07-20T06:26:28;15.60;99.90
17845;DHT22;9047;53.486;10.218;2023-07-20T06:28:55;15.90;99.90
17845;DHT22;9047;53.486;10.218;2023-07-20T06:31:22;16.10;99.90
17845;DHT22;9047;53.486;10.218;2023-07-20T06:33:49;16.40;99.90
17845;DHT22;9047;53.486;10.218;2023-07-20T06:36:18;16.70;99.90
17845;DHT22;9047;53.486;10.218;2023-07-20T06:38:44;17.10;99.90
17845;DHT22;9047;53.486;10.218;2023-07-20T06:41:13;17.80;99.90
17845;DHT22;9047;53.486;10.218;2023-07-20T06:43:39;18.30;99.90
17845;DHT22;9047;53.486;10.218;2023-07-20T06:46:06;18.60;99.90
17845;DHT22;9047;53.486;10.218;2023-07-20T06:48:33;18.80;99.90
17845;DHT22;9047;53.486;10.218;2023-07-20T06:51:00;19.40;99.90
17845;DHT22;9047;53.486;10.218;2023-07-20T06:53:28;20.20;99.90
17845;DHT22;9047;53.486;10.218;2023-07-20T06:55:55;20.90;99.90
17845;DHT22;9047;53.486;10.218;2023-07-20T06:58:24;21.60;99.90
17845;DHT22;9047;53.486;10.218;2023-07-20T07:00:51;22.00;99.90
17845;DHT22;9047;53.486;10.218;2023-07-20T07:03:18;21.70;99.90
17845;DHT22;9047;53.486;10.218;2023-07-20T07:05:46;21.80;99.90
17845;DHT22;9047;53.486;10.218;2023-07-20T07:08:15;22.40;99.90
17845;DHT22;9047;53.486;10.218;2023-07-20T07:10:42;23.00;99.90
17845;DHT22;9047;53.486;10.218;2023-07-20T07:13:09;22.90;99.90
17845;DHT22;9047;53.486;10.218;2023-07-20T07:15:38;22.30;99.90
17845;DHT22;9047;53.486;10.218;2023-07-20T07:18:05;21.80;99.90
17845;DHT22;9047;53.486;10.218;2023-07-20T07:20:31;21.50;99.90
17845;DHT22;9047;53.486;10.218;2023-07-20T07:22:58;21.70;99.90
17845;DHT22;9047;53.486;10.218;2023-07-20T07:25:26;21.70;99.90
17845;DHT22;9047;53.486;10.218;2023-07-20T07:27:54;22.20;99.90
17845;DHT22;9047;53.486;10.218;2023-07-20T07:30:22;22.90;99.90
17845;DHT22;9047;53.486;10.218;2023-07-20T07:32:50;23.50;99.90
17845;DHT22;9047;53.486;10.218;2023-07-20T07:35:17;24.20;99.90
17845;DHT22;9047;53.486;10.218;2023-07-20T07:37:45;24.70;99.90
17845;DHT22;9047;53.486;10.218;2023-07-20T07:40:12;25.00;99.90
17845;DHT22;9047;53.486;10.218;2023-07-20T07:42:42;24.50;99.90
17845;DHT22;9047;53.486;10.218;2023-07-20T07:45:10;23.70;99.90
17845;DHT22;9047;53.486;10.218;2023-07-20T07:47:36;22.80;99.90
17845;DHT22;9047;53.486;10.218;2023-07-20T07:50:06;22.10;99.90
17845;DHT22;9047;53.486;10.218;2023-07-20T07:52:33;22.40;99.90
17845;DHT22;9047;53.486;10.218;2023-07-20T07:54:59;23.10;99.90
17845;DHT22;9047;53.486;10.218;2023-07-20T07:57:26;23.90;99.90
17845;DHT22;9047;53.486;10.218;2023-07-20T07:59:53;24.30;99.90
17845;DHT22;9047;53.486;10.218;2023-07-20T08:02:20;24.10;99.90
17845;DHT22;9047;53.486;10.218;2023-07-20T08:04:47;23.80;99.90
17845;DHT22;9047;53.486;10.218;2023-07-20T08:07:19;23.80;99.90
17845;DHT22;9047;53.486;10.218;2023-07-20T08:09:48;23.50;99.90
17845;DHT22;9047;53.486;10.218;2023-07-20T08:12:15;22.90;99.80
17845;DHT22;9047;53.486;10.218;2023-07-20T08:14:44;22.30;99.90
17845;DHT22;9047;53.486;10.218;2023-07-20T08:17:10;21.60;99.90
17845;DHT22;9047;53.486;10.218;2023-07-20T08:19:37;20.90;99.90
17845;DHT22;9047;53.486;10.218;2023-07-20T08:22:07;20.30;99.90
17845;DHT22;9047;53.486;10.218;2023-07-20T08:24:39;20.40;99.90
17845;DHT22;9047;53.486;10.218;2023-07-20T08:27:06;20.60;99.90
17845;DHT22;9047;53.486;10.218;2023-07-20T08:29:34;20.80;99.90
17845;DHT22;9047;53.486;10.218;2023-07-20T08:32:01;21.00;99.90
17845;DHT22;9047;53.486;10.218;2023-07-20T08:34:29;21.10;99.90
17845;DHT22;9047;53.486;10.218;2023-07-20T08:36:56;20.90;99.90
17845;DHT22;9047;53.486;10.218;2023-07-20T08:39:24;20.80;99.90
17845;DHT22;9047;53.486;10.218;2023-07-20T08:41:52;20.60;99.90
17845;DHT22;9047;53.486;10.218;2023-07-20T08:44:20;20.20;99.90
17845;DHT22;9047;53.486;10.218;2023-07-20T08:46:49;19.90;99.90
17845;DHT22;9047;53.486;10.218;2023-07-20T08:49:16;19.90;99.90
17845;DHT22;9047;53.486;10.218;2023-07-20T08:51:45;19.90;99.90
17845;DHT22;9047;53.486;10.218;2023-07-20T08:54:13;19.90;99.90
17845;DHT22;9047;53.486;10.218;2023-07-20T08:56:41;20.00;99.90
17845;DHT22;9047;53.486;10.218;2023-07-20T08:59:11;20.10;99.90
17845;DHT22;9047;53.486;10.218;2023-07-20T09:01:39;20.30;99.90
17845;DHT22;9047;53.486;10.218;2023-07-20T09:04:06;20.40;99.90
17845;DHT22;9047;53.486;10.218;2023-07-20T09:06:34;20.70;99.90
17845;DHT22;9047;53.486;10.218;2023-07-20T09:09:01;20.90;99.90
17845;DHT22;9047;53.486;10.218;2023-07-20T09:11:28;21.00;99.90
17845;DHT22;9047;53.486;10.218;2023-07-20T09:14:05;21.00;99.90
17845;DHT22;9047;53.486;10.218;2023-07-20T09:16:47;20.90;99.90
17845;DHT22;9047;53.486;10.218;2023-07-20T09:19:14;20.50;99.90
17845;DHT22;9047;53.486;10.218;2023-07-20T09:21:44;19.90;99.90
17845;DHT22;9047;53.486;10.218;2023-07-20T09:24:11;19.30;99.90
17845;DHT22;9047;53.486;10.218;2023-07-20T09:26:41;18.70;99.90
17845;DHT22;9047;53.486;10.218;2023-07-20T09:29:08;18.50;99.90
17845;DHT22;9047;53.486;10.218;2023-07-20T09:31:37;18.50;99.90
17845;DHT22;9047;53.486;10.218;2023-07-20T09:34:05;18.60;99.90
17845;DHT22;9047;53.486;10.218;2023-07-20T09:36:36;18.60;99.90
17845;DHT22;9047;53.486;10.218;2023-07-20T09:39:03;18.60;99.90
17845;DHT22;9047;53.486;10.218;2023-07-20T09:41:39;18.70;99.90
17845;DHT22;9047;53.486;10.218;2023-07-20T09:44:07;18.80;99.90
17845;DHT22;9047;53.486;10.218;2023-07-20T09:46:43;19.10;99.90
17845;DHT22;9047;53.486;10.218;2023-07-20T09:49:11;19.60;99.90
17845;DHT22;9047;53.486;10.218;2023-07-20T09:51:38;20.00;99.90
17845;DHT22;9047;53.486;10.218;2023-07-20T09:54:05;20.20;99.90
17845;DHT22;9047;53.486;10.218;2023-07-20T09:56:33;20.40;99.90
17845;DHT22;9047;53.486;10.218;2023-07-20T09:59:01;20.40;99.90
17845;DHT22;9047;53.486;10.218;2023-07-20T10:01:32;20.10;99.90
17845;DHT22;9047;53.486;10.218;2023-07-20T10:04:03;19.40;99.90
17845;DHT22;9047;53.486;10.218;2023-07-20T10:06:32;18.70;99.90
17845;DHT22;9047;53.486;10.218;2023-07-20T10:09:02;18.20;99.90
17845;DHT22;9047;53.486;10.218;2023-07-20T10:11:31;17.70;99.90
17845;DHT22;9047;53.486;10.218;2023-07-20T10:13:59;17.50;99.90
17845;DHT22;9047;53.486;10.218;2023-07-20T10:16:29;17.30;99.90
17845;DHT22;9047;53.486;10.218;2023-07-20T10:19:05;17.30;99.90
17845;DHT22;9047;53.486;10.218;2023-07-20T10:21:34;17.30;99.90
17845;DHT22;9047;53.486;10.218;2023-07-20T10:24:03;17.30;99.90
17845;DHT22;9047;53.486;10.218;2023-07-20T10:26:31;17.40;99.90
17845;DHT22;9047;53.486;10.218;2023-07-20T10:28:58;17.50;99.90
17845;DHT22;9047;53.486;10.218;2023-07-20T10:31:27;17.70;99.90
17845;DHT22;9047;53.486;10.218;2023-07-20T10:33:56;17.90;99.90
17845;DHT22;9047;53.486;10.218;2023-07-20T10:36:26;18.10;99.90
17845;DHT22;9047;53.486;10.218;2023-07-20T10:38:55;18.30;99.90
17845;DHT22;9047;53.486;10.218;2023-07-20T10:41:28;18.40;99.90
17845;DHT22;9047;53.486;10.218;2023-07-20T10:44:01;18.50;99.90
17845;DHT22;9047;53.486;10.218;2023-07-20T10:46:45;18.70;99.90
17845;DHT22;9047;53.486;10.218;2023-07-20T10:49:15;18.90;99.90
17845;DHT22;9047;53.486;10.218;2023-07-20T10:51:45;19.10;99.90
17845;DHT22;9047;53.486;10.218;2023-07-20T10:54:47;19.20;99.90
17845;DHT22;9047;53.486;10.218;2023-07-20T10:57:23;19.20;99.90
17845;DHT22;9047;53.486;10.218;2023-07-20T10:59:50;19.30;99.90
17845;DHT22;9047;53.486;10.218;2023-07-20T11:02:18;19.40;99.90
17845;DHT22;9047;53.486;10.218;2023-07-20T11:04:47;19.80;99.90
17845;DHT22;9047;53.486;10.218;2023-07-20T11:07:38;20.20;99.90
17845;DHT22;9047;53.486;10.218;2023-07-20T11:10:14;20.60;99.90
17845;DHT22;9047;53.486;10.218;2023-07-20T11:13:21;20.70;99.90
17845;DHT22;9047;53.486;10.218;2023-07-20T11:16:01;20.70;99.90
17845;DHT22;9047;53.486;10.218;2023-07-20T11:18:30;20.60;99.90
17845;DHT22;9047;53.486;10.218;2023-07-20T11:20:59;20.60;99.90
17845;DHT22;9047;53.486;10.218;2023-07-20T11:23:26;20.80;99.90
17845;DHT22;9047;53.486;10.218;2023-07-20T11:25:54;21.00;99.90
17845;DHT22;9047;53.486;10.218;2023-07-20T11:28:24;21.00;99.90
17845;DHT22;9047;53.486;10.218;2023-07-20T11:30:54;21.10;99.90
17845;DHT22;9047;53.486;10.218;2023-07-20T11:33:22;21.20;99.90
17845;DHT22;9047;53.486;10.218;2023-07-20T11:35:50;21.10;99.90
17845;DHT22;9047;53.486;10.218;2023-07-20T11:38:18;21.00;99.90
17845;DHT22;9047;53.486;10.218;2023-07-20T11:40:46;20.80;99.90
17845;DHT22;9047;53.486;10.218;2023-07-20T11:43:18;20.60;99.90
17845;DHT22;9047;53.486;10.218;2023-07-20T11:45:48;20.40;99.90
17845;DHT22;9047;53.486;10.218;2023-07-20T11:48:15;20.10;99.90
17845;DHT22;9047;53.486;10.218;2023-07-20T11:50:45;19.80;99.90
17845;DHT22;9047;53.486;10.218;2023-07-20T11:53:12;19.70;99.90
17845;DHT22;9047;53.486;10.218;2023-07-20T11:55:40;19.60;99.90
17845;DHT22;9047;53.486;10.218;2023-07-20T11:58:08;19.60;99.90
17845;DHT22;9047;53.486;10.218;2023-07-20T12:00:38;19.90;99.90
17845;DHT22;9047;53.486;10.218;2023-07-20T12:03:07;20.00;99.90
17845;DHT22;9047;53.486;10.218;2023-07-20T12:05:38;20.20;99.90
17845;DHT22;9047;53.486;10.218;2023-07-20T12:08:05;20.40;99.90
17845;DHT22;9047;53.486;10.218;2023-07-20T12:10:32;20.60;99.90
17845;DHT22;9047;53.486;10.218;2023-07-20T12:13:02;20.90;99.90
17845;DHT22;9047;53.486;10.218;2023-07-20T12:15:30;21.10;99.90
17845;DHT22;9047;53.486;10.218;2023-07-20T12:17:58;21.40;99.90
17845;DHT22;9047;53.486;10.218;2023-07-20T12:20:29;21.60;99.90
17845;DHT22;9047;53.486;10.218;2023-07-20T12:22:57;21.70;99.90
17845;DHT22;9047;53.486;10.218;2023-07-20T12:25:34;21.80;99.90
17845;DHT22;9047;53.486;10.218;2023-07-20T12:28:01;21.90;99.90
17845;DHT22;9047;53.486;10.218;2023-07-20T12:30:29;22.00;99.90
17845;DHT22;9047;53.486;10.218;2023-07-20T12:32:56;22.10;99.90
17845;DHT22;9047;53.486;10.218;2023-07-20T12:35:23;22.20;99.90
17845;DHT22;9047;53.486;10.218;2023-07-20T12:37:53;22.30;99.90
17845;DHT22;9047;53.486;10.218;2023-07-20T12:40:20;22.40;99.90
17845;DHT22;9047;53.486;10.218;2023-07-20T12:42:47;22.40;99.90
17845;DHT22;9047;53.486;10.218;2023-07-20T12:45:14;22.30;99.90
17845;DHT22;9047;53.486;10.218;2023-07-20T12:47:41;22.30;99.90
17845;DHT22;9047;53.486;10.218;2023-07-20T12:50:09;22.30;99.90
17845;DHT22;9047;53.486;10.218;2023-07-20T12:52:37;22.20;99.90
17845;DHT22;9047;53.486;10.218;2023-07-20T12:55:07;22.10;99.90
17845;DHT22;9047;53.486;10.218;2023-07-20T12:57:35;22.00;99.90
17845;DHT22;9047;53.486;10.218;2023-07-20T13:00:02;21.90;99.90
17845;DHT22;9047;53.486;10.218;2023-07-20T13:02:30;21.80;99.90
17845;DHT22;9047;53.486;10.218;2023-07-20T13:04:57;21.60;99.90
17845;DHT22;9047;53.486;10.218;2023-07-20T13:07:35;21.40;99.90
17845;DHT22;9047;53.486;10.218;2023-07-20T13:10:02;21.30;99.90
17845;DHT22;9047;53.486;10.218;2023-07-20T13:12:34;21.30;99.90
17845;DHT22;9047;53.486;10.218;2023-07-20T13:15:02;21.20;99.90
17845;DHT22;9047;53.486;10.218;2023-07-20T13:17:31;21.20;99.90
17845;DHT22;9047;53.486;10.218;2023-07-20T13:19:58;21.40;99.90
17845;DHT22;9047;53.486;10.218;2023-07-20T13:22:25;21.60;99.90
17845;DHT22;9047;53.486;10.218;2023-07-20T13:24:53;22.00;99.90
17845;DHT22;9047;53.486;10.218;2023-07-20T13:27:20;22.20;99.90
17845;DHT22;9047;53.486;10.218;2023-07-20T13:29:49;22.50;99.90
17845;DHT22;9047;53.486;10.218;2023-07-20T13:32:15;22.90;99.90
17845;DHT22;9047;53.486;10.218;2023-07-20T13:34:43;23.00;99.90
17845;DHT22;9047;53.486;10.218;2023-07-20T13:37:11;23.20;99.90
17845;DHT22;9047;53.486;10.218;2023-07-20T13:39:38;23.10;99.80
17845;DHT22;9047;53.486;10.218;2023-07-20T13:42:05;22.90;98.80
17845;DHT22;9047;53.486;10.218;2023-07-20T13:44:33;22.80;98.00
17845;DHT22;9047;53.486;10.218;2023-07-20T13:47:01;22.40;97.80
17845;DHT22;9047;53.486;10.218;2023-07-20T13:49:28;22.10;98.10
17845;DHT22;9047;53.486;10.218;2023-07-20T13:51:56;21.90;98.20
17845;DHT22;9047;53.486;10.218;2023-07-20T13:54:23;21.90;98.00
17845;DHT22;9047;53.486;10.218;2023-07-20T13:56:50;22.00;98.70
17845;DHT22;9047;53.486;10.218;2023-07-20T13:59:18;22.20;99.00
17845;DHT22;9047;53.486;10.218;2023-07-20T14:01:45;22.30;99.30
17845;DHT22;9047;53.486;10.218;2023-07-20T14:04:16;22.60;99.20
17845;DHT22;9047;53.486;10.218;2023-07-20T14:06:44;22.70;98.10
17845;DHT22;9047;53.486;10.218;2023-07-20T14:09:13;22.50;97.00
17845;DHT22;9047;53.486;10.218;2023-07-20T14:11:40;22.10;97.00
17845;DHT22;9047;53.486;10.218;2023-07-20T14:14:07;21.80;97.80
17845;DHT22;9047;53.486;10.218;2023-07-20T14:16:34;21.70;98.40
17845;DHT22;9047;53.486;10.218;2023-07-20T14:19:05;21.70;98.80
17845;DHT22;9047;53.486;10.218;2023-07-20T14:21:34;21.70;98.80
17845;DHT22;9047;53.486;10.218;2023-07-20T14:24:03;21.60;98.90
17845;DHT22;9047;53.486;10.218;2023-07-20T14:26:30;21.50;99.30
17845;DHT22;9047;53.486;10.218;2023-07-20T14:28:57;21.40;99.90
17845;DHT22;9047;53.486;10.218;2023-07-20T14:31:24;21.20;99.90
17845;DHT22;9047;53.486;10.218;2023-07-20T14:33:51;21.10;99.90
17845;DHT22;9047;53.486;10.218;2023-07-20T14:36:18;21.30;99.90
17845;DHT22;9047;53.486;10.218;2023-07-20T14:38:47;21.40;99.90
17845;DHT22;9047;53.486;10.218;2023-07-20T14:41:14;21.50;99.90
17845;DHT22;9047;53.486;10.218;2023-07-20T14:43:41;21.70;99.90
17845;DHT22;9047;53.486;10.218;2023-07-20T14:46:08;21.90;99.10
17845;DHT22;9047;53.486;10.218;2023-07-20T14:48:34;22.10;99.50
17845;DHT22;9047;53.486;10.218;2023-07-20T14:51:04;22.50;98.20
17845;DHT22;9047;53.486;10.218;2023-07-20T14:53:31;22.70;97.40
17845;DHT22;9047;53.486;10.218;2023-07-20T14:56:00;22.80;97.50
17845;DHT22;9047;53.486;10.218;2023-07-20T14:58:27;22.70;97.20
17845;DHT22;9047;53.486;10.218;2023-07-20T15:00:54;22.50;97.60
17845;DHT22;9047;53.486;10.218;2023-07-20T15:03:21;22.30;97.50
17845;DHT22;9047;53.486;10.218;2023-07-20T15:05:48;22.10;97.40
17845;DHT22;9047;53.486;10.218;2023-07-20T15:08:17;21.80;97.30
17845;DHT22;9047;53.486;10.218;2023-07-20T15:10:44;21.80;97.00
17845;DHT22;9047;53.486;10.218;2023-07-20T15:13:13;21.70;96.90
17845;DHT22;9047;53.486;10.218;2023-07-20T15:15:42;21.80;96.90
17845;DHT22;9047;53.486;10.218;2023-07-20T15:18:09;21.70;97.10
17845;DHT22;9047;53.486;10.218;2023-07-20T15:20:36;21.80;96.80
17845;DHT22;9047;53.486;10.218;2023-07-20T15:23:03;21.70;97.40
17845;DHT22;9047;53.486;10.218;2023-07-20T15:25:30;21.80;97.80
17845;DHT22;9047;53.486;10.218;2023-07-20T15:27:57;21.80;97.70
17845;DHT22;9047;53.486;10.218;2023-07-20T15:30:29;21.70;98.00
17845;DHT22;9047;53.486;10.218;2023-07-20T15:32:56;21.70;98.20
17845;DHT22;9047;53.486;10.218;2023-07-20T15:35:23;21.60;98.00
17845;DHT22;9047;53.486;10.218;2023-07-20T15:37:50;21.60;98.10
17845;DHT22;9047;53.486;10.218;2023-07-20T15:40:17;21.50;98.30